sensor_id;sensor_type;location;lat;lon;timestamp;P1;durP1;ratioP1;P2;durP2;ratioP2
3447;SDS011;1738;49.500;17.736;2023-09-30T00:01:29;12.60;;;9.47;;
3447;SDS011;1738;49.500;17.736;2023-09-30T00:03:55;10.93;;;9.03;;
3447;SDS011;1738;49.500;17.736;2023-09-30T00:06:21;12.43;;;8.40;;
3447;SDS011;1738;49.500;17.736;2023-09-30T00:08:47;14.77;;;10.80;;
3447;SDS011;1738;49.500;17.736;2023-09-30T00:11:15;11.33;;;9.40;;
3447;SDS011;1738;49.500;17.736;2023-09-30T00:13:39;13.87;;;10.10;;
3447;SDS011;1738;49.500;17.736;2023-09-30T00:16:04;11.90;;;8.17;;
3447;SDS011;1738;49.500;17.736;2023-09-30T00:18:30;11.00;;;8.80;;
3447;SDS011;1738;49.500;17.736;2023-09-30T00:20:56;17.80;;;9.60;;
3447;SDS011;1738;49.500;17.736;2023-09-30T00:23:22;17.00;;;9.20;;
3447;SDS011;1738;49.500;17.736;2023-09-30T00:25:48;15.90;;;10.53;;
3447;SDS011;1738;49.500;17.736;2023-09-30T00:28:15;14.73;;;10.27;;
3447;SDS011;1738;49.500;17.736;2023-09-30T00:30:41;12.70;;;9.23;;
3447;SDS011;1738;49.500;17.736;2023-09-30T00:33:06;15.00;;;9.80;;
3447;SDS011;1738;49.500;17.736;2023-09-30T00:35:32;11.87;;;9.60;;
3447;SDS011;1738;49.500;17.736;2023-09-30T00:37:58;12.50;;;9.57;;
3447;SDS011;1738;49.500;17.736;2023-09-30T00:40:24;14.73;;;9.23;;
3447;SDS011;1738;49.500;17.736;2023-09-30T00:42:50;12.52;;;9.23;;
3447;SDS011;1738;49.500;17.736;2023-09-30T00:45:16;16.03;;;10.33;;
3447;SDS011;1738;49.500;17.736;2023-09-30T00:47:41;16.57;;;10.47;;
3447;SDS011;1738;49.500;17.736;2023-09-30T00:50:08;11.68;;;9.52;;
3447;SDS011;1738;49.500;17.736;2023-09-30T00:52:34;12.37;;;10.43;;
3447;SDS011;1738;49.500;17.736;2023-09-30T00:55:00;13.43;;;10.60;;
3447;SDS011;1738;49.500;17.736;2023-09-30T00:57:25;11.40;;;10.17;;
3447;SDS011;1738;49.500;17.736;2023-09-30T00:59:51;13.13;;;10.47;;
3447;SDS011;1738;49.500;17.736;2023-09-30T01:02:17;13.45;;;10.02;;
3447;SDS011;1738;49.500;17.736;2023-09-30T01:04:43;15.00;;;10.57;;
3447;SDS011;1738;49.500;17.736;2023-09-30T01:07:09;14.30;;;9.93;;
3447;SDS011;1738;49.500;17.736;2023-09-30T01:09:35;12.10;;;9.50;;
3447;SDS011;1738;49.500;17.736;2023-09-30T01:12:00;16.80;;;10.00;;
3447;SDS011;1738;49.500;17.736;2023-09-30T01:14:28;12.40;;;9.53;;
3447;SDS011;1738;49.500;17.736;2023-09-30T01:16:53;16.47;;;10.37;;
3447;SDS011;1738;49.500;17.736;2023-09-30T01:19:19;15.13;;;9.73;;
3447;SDS011;1738;49.500;17.736;2023-09-30T01:21:45;16.55;;;10.85;;
3447;SDS011;1738;49.500;17.736;2023-09-30T01:24:14;15.50;;;10.43;;
3447;SDS011;1738;49.500;17.736;2023-09-30T01:26:39;12.63;;;10.00;;
3447;SDS011;1738;49.500;17.736;2023-09-30T01:29:05;15.67;;;10.97;;
3447;SDS011;1738;49.500;17.736;2023-09-30T01:31:31;14.77;;;10.27;;
3447;SDS011;1738;49.500;17.736;2023-09-30T01:33:57;16.50;;;11.70;;
3447;SDS011;1738;49.500;17.736;2023-09-30T01:36:22;16.07;;;10.67;;
3447;SDS011;1738;49.500;17.736;2023-09-30T01:38:48;12.40;;;10.07;;
3447;SDS011;1738;49.500;17.736;2023-09-30T01:41:14;15.83;;;10.57;;
3447;SDS011;1738;49.500;17.736;2023-09-30T01:43:40;10.53;;;9.43;;
3447;SDS011;1738;49.500;17.736;2023-09-30T01:46:06;15.30;;;10.93;;
3447;SDS011;1738;49.500;17.736;2023-09-30T01:48:32;13.83;;;9.70;;
3447;SDS011;1738;49.500;17.736;2023-09-30T01:50:57;13.23;;;9.90;;
3447;SDS011;1738;49.500;17.736;2023-09-30T01:53:23;13.60;;;10.53;;
3447;SDS011;1738;49.500;17.736;2023-09-30T01:55:49;14.50;;;10.47;;
3447;SDS011;1738;49.500;17.736;2023-09-30T01:58:15;15.17;;;10.57;;
3447;SDS011;1738;49.500;17.736;2023-09-30T02:00:41;14.20;;;10.73;;
3447;SDS011;1738;49.500;17.736;2023-09-30T02:03:07;19.83;;;10.53;;
3447;SDS011;1738;49.500;17.736;2023-09-30T02:05:33;16.90;;;11.20;;
3447;SDS011;1738;49.500;17.736;2023-09-30T02:07:58;16.50;;;11.27;;
3447;SDS011;1738;49.500;17.736;2023-09-30T02:10:24;14.60;;;9.38;;
3447;SDS011;1738;49.500;17.736;2023-09-30T02:12:50;11.90;;;9.83;;
3447;SDS011;1738;49.500;17.736;2023-09-30T02:15:16;15.90;;;11.13;;
3447;SDS011;1738;49.500;17.736;2023-09-30T02:17:42;16.40;;;11.63;;
3447;SDS011;1738;49.500;17.736;2023-09-30T02:20:08;13.67;;;9.97;;
3447;SDS011;1738;49.500;17.736;2023-09-30T02:22:34;15.00;;;10.50;;
3447;SDS011;1738;49.500;17.736;2023-09-30T02:25:00;19.10;;;10.90;;
3447;SDS011;1738;49.500;17.736;2023-09-30T02:27:26;14.60;;;10.20;;
3447;SDS011;1738;49.500;17.736;2023-09-30T02:29:51;16.65;;;11.10;;
3447;SDS011;1738;49.500;17.736;2023-09-30T02:32:17;17.80;;;11.50;;
3447;SDS011;1738;49.500;17.736;2023-09-30T02:34:43;21.17;;;10.80;;
3447;SDS011;1738;49.500;17.736;2023-09-30T02:37:09;15.77;;;9.70;;
3447;SDS011;1738;49.500;17.736;2023-09-30T02:39:35;14.13;;;10.83;;
3447;SDS011;1738;49.500;17.736;2023-09-30T02:42:01;12.02;;;9.45;;
3447;SDS011;1738;49.500;17.736;2023-09-30T02:44:27;14.53;;;10.87;;
3447;SDS011;1738;49.500;17.736;2023-09-30T02:46:52;16.40;;;10.87;;
3447;SDS011;1738;49.500;17.736;2023-09-30T02:49:18;19.13;;;10.40;;
3447;SDS011;1738;49.500;17.736;2023-09-30T02:51:44;14.93;;;10.67;;
3447;SDS011;1738;49.500;17.736;2023-09-30T02:54:10;16.27;;;11.30;;
3447;SDS011;1738;49.500;17.736;2023-09-30T02:56:36;15.60;;;10.47;;
3447;SDS011;1738;49.500;17.736;2023-09-30T02:59:02;15.00;;;10.23;;
3447;SDS011;1738;49.500;17.736;2023-09-30T03:01:28;14.57;;;10.67;;
3447;SDS011;1738;49.500;17.736;2023-09-30T03:03:53;12.13;;;10.87;;
3447;SDS011;1738;49.500;17.736;2023-09-30T03:06:19;13.07;;;9.77;;
3447;SDS011;1738;49.500;17.736;2023-09-30T03:08:45;14.93;;;10.33;;
3447;SDS011;1738;49.500;17.736;2023-09-30T03:11:11;13.60;;;9.43;;
3447;SDS011;1738;49.500;17.736;2023-09-30T03:13:37;12.53;;;9.80;;
3447;SDS011;1738;49.500;17.736;2023-09-30T03:16:03;13.97;;;10.20;;
3447;SDS011;1738;49.500;17.736;2023-09-30T03:18:29;19.60;;;11.40;;
3447;SDS011;1738;49.500;17.736;2023-09-30T03:20:58;15.23;;;10.50;;
3447;SDS011;1738;49.500;17.736;2023-09-30T03:23:20;15.97;;;10.33;;
3447;SDS011;1738;49.500;17.736;2023-09-30T03:25:46;13.20;;;9.90;;
3447;SDS011;1738;49.500;17.736;2023-09-30T03:28:12;12.50;;;9.70;;
3447;SDS011;1738;49.500;17.736;2023-09-30T03:30:38;13.80;;;9.40;;
3447;SDS011;1738;49.500;17.736;2023-09-30T03:33:04;12.17;;;9.83;;
3447;SDS011;1738;49.500;17.736;2023-09-30T03:35:30;12.20;;;9.90;;
3447;SDS011;1738;49.500;17.736;2023-09-30T03:37:56;17.17;;;10.30;;
3447;SDS011;1738;49.500;17.736;2023-09-30T03:40:21;17.50;;;9.70;;
3447;SDS011;1738;49.500;17.736;2023-09-30T03:42:48;14.75;;;10.20;;
3447;SDS011;1738;49.500;17.736;2023-09-30T03:45:15;12.77;;;9.97;;
3447;SDS011;1738;49.500;17.736;2023-09-30T03:47:41;13.55;;;10.45;;
3447;SDS011;1738;49.500;17.736;2023-09-30T03:50:07;16.90;;;10.50;;
3447;SDS011;1738;49.500;17.736;2023-09-30T03:52:33;16.67;;;11.10;;
3447;SDS011;1738;49.500;17.736;2023-09-30T03:54:59;15.00;;;10.80;;
3447;SDS011;1738;49.500;17.736;2023-09-30T03:57:25;15.10;;;9.60;;
3447;SDS011;1738;49.500;17.736;2023-09-30T03:59:51;12.00;;;9.50;;
3447;SDS011;1738;49.500;17.736;2023-09-30T04:02:17;13.17;;;9.90;;
3447;SDS011;1738;49.500;17.736;2023-09-30T04:04:42;11.60;;;9.77;;
3447;SDS011;1738;49.500;17.736;2023-09-30T04:07:08;11.17;;;8.77;;
3447;SDS011;1738;49.500;17.736;2023-09-30T04:09:34;15.57;;;9.10;;
3447;SDS011;1738;49.500;17.736;2023-09-30T04:12:00;26.43;;;10.13;;
3447;SDS011;1738;49.500;17.736;2023-09-30T04:14:26;13.40;;;9.23;;
3447;SDS011;1738;49.500;17.736;2023-09-30T04:16:52;11.10;;;9.27;;
3447;SDS011;1738;49.500;17.736;2023-09-30T04:19:17;12.60;;;10.30;;
3447;SDS011;1738;49.500;17.736;2023-09-30T04:21:43;12.07;;;9.50;;
3447;SDS011;1738;49.500;17.736;2023-09-30T04:24:09;15.30;;;9.57;;
3447;SDS011;1738;49.500;17.736;2023-09-30T04:26:35;16.33;;;10.30;;
3447;SDS011;1738;49.500;17.736;2023-09-30T04:29:01;15.57;;;9.65;;
3447;SDS011;1738;49.500;17.736;2023-09-30T04:31:27;12.77;;;10.30;;
3447;SDS011;1738;49.500;17.736;2023-09-30T04:33:53;11.70;;;9.70;;
3447;SDS011;1738;49.500;17.736;2023-09-30T04:36:19;14.70;;;10.87;;
3447;SDS011;1738;49.500;17.736;2023-09-30T04:38:44;17.40;;;12.90;;
3447;SDS011;1738;49.500;17.736;2023-09-30T04:41:10;14.60;;;10.57;;
3447;SDS011;1738;49.500;17.736;2023-09-30T04:43:36;13.43;;;10.07;;
3447;SDS011;1738;49.500;17.736;2023-09-30T04:46:04;12.83;;;10.50;;
3447;SDS011;1738;49.500;17.736;2023-09-30T04:48:30;15.60;;;9.10;;
3447;SDS011;1738;49.500;17.736;2023-09-30T04:50:56;15.83;;;11.33;;
3447;SDS011;1738;49.500;17.736;2023-09-30T04:53:21;13.57;;;11.30;;
3447;SDS011;1738;49.500;17.736;2023-09-30T04:55:47;14.33;;;10.10;;
3447;SDS011;1738;49.500;17.736;2023-09-30T04:58:13;17.23;;;10.15;;
3447;SDS011;1738;49.500;17.736;2023-09-30T05:00:39;15.70;;;11.20;;
3447;SDS011;1738;49.500;17.736;2023-09-30T05:03:05;18.77;;;10.50;;
3447;SDS011;1738;49.500;17.736;2023-09-30T05:05:31;12.83;;;9.53;;
3447;SDS011;1738;49.500;17.736;2023-09-30T05:07:56;13.27;;;10.40;;
3447;SDS011;1738;49.500;17.736;2023-09-30T05:10:22;18.40;;;11.40;;
3447;SDS011;1738;49.500;17.736;2023-09-30T05:12:48;13.70;;;9.73;;
3447;SDS011;1738;49.500;17.736;2023-09-30T05:15:15;14.07;;;11.70;;
3447;SDS011;1738;49.500;17.736;2023-09-30T05:17:42;15.87;;;11.33;;
3447;SDS011;1738;49.500;17.736;2023-09-30T05:20:08;14.60;;;11.23;;
3447;SDS011;1738;49.500;17.736;2023-09-30T05:22:34;14.70;;;10.15;;
3447;SDS011;1738;49.500;17.736;2023-09-30T05:25:00;15.00;;;11.30;;
3447;SDS011;1738;49.500;17.736;2023-09-30T05:27:26;20.47;;;11.73;;
3447;SDS011;1738;49.500;17.736;2023-09-30T05:29:52;13.77;;;9.60;;
3447;SDS011;1738;49.500;17.736;2023-09-30T05:32:18;15.70;;;11.30;;
3447;SDS011;1738;49.500;17.736;2023-09-30T05:34:44;14.37;;;11.77;;
3447;SDS011;1738;49.500;17.736;2023-09-30T05:37:09;17.30;;;11.90;;
3447;SDS011;1738;49.500;17.736;2023-09-30T05:39:35;12.13;;;9.55;;
3447;SDS011;1738;49.500;17.736;2023-09-30T05:42:01;14.03;;;11.03;;
3447;SDS011;1738;49.500;17.736;2023-09-30T05:44:27;14.53;;;11.60;;
3447;SDS011;1738;49.500;17.736;2023-09-30T05:46:53;13.70;;;11.63;;
3447;SDS011;1738;49.500;17.736;2023-09-30T05:49:19;13.00;;;11.27;;
3447;SDS011;1738;49.500;17.736;2023-09-30T05:51:44;18.47;;;12.90;;
3447;SDS011;1738;49.500;17.736;2023-09-30T05:54:10;13.10;;;10.60;;
3447;SDS011;1738;49.500;17.736;2023-09-30T05:56:36;15.40;;;11.68;;
3447;SDS011;1738;49.500;17.736;2023-09-30T05:59:03;13.93;;;11.90;;
3447;SDS011;1738;49.500;17.736;2023-09-30T06:01:29;13.90;;;11.50;;
3447;SDS011;1738;49.500;17.736;2023-09-30T06:03:54;16.10;;;11.93;;
3447;SDS011;1738;49.500;17.736;2023-09-30T06:06:20;15.00;;;11.75;;
3447;SDS011;1738;49.500;17.736;2023-09-30T06:08:46;14.63;;;10.97;;
3447;SDS011;1738;49.500;17.736;2023-09-30T06:11:17;14.60;;;11.30;;
3447;SDS011;1738;49.500;17.736;2023-09-30T06:13:43;14.00;;;11.07;;
3447;SDS011;1738;49.500;17.736;2023-09-30T06:16:09;15.43;;;11.03;;
3447;SDS011;1738;49.500;17.736;2023-09-30T06:18:35;16.00;;;11.53;;
3447;SDS011;1738;49.500;17.736;2023-09-30T06:21:00;16.60;;;12.77;;
3447;SDS011;1738;49.500;17.736;2023-09-30T06:23:26;12.57;;;11.27;;
3447;SDS011;1738;49.500;17.736;2023-09-30T06:25:52;13.43;;;10.33;;
3447;SDS011;1738;49.500;17.736;2023-09-30T06:28:18;17.23;;;12.23;;
3447;SDS011;1738;49.500;17.736;2023-09-30T06:30:44;25.53;;;10.63;;
3447;SDS011;1738;49.500;17.736;2023-09-30T06:33:10;15.07;;;12.00;;
3447;SDS011;1738;49.500;17.736;2023-09-30T06:35:36;15.13;;;10.43;;
3447;SDS011;1738;49.500;17.736;2023-09-30T06:38:01;15.70;;;12.03;;
3447;SDS011;1738;49.500;17.736;2023-09-30T06:40:27;15.17;;;11.90;;
3447;SDS011;1738;49.500;17.736;2023-09-30T06:42:53;16.57;;;12.20;;
3447;SDS011;1738;49.500;17.736;2023-09-30T06:45:19;22.42;;;11.50;;
3447;SDS011;1738;49.500;17.736;2023-09-30T06:47:45;15.80;;;12.20;;
3447;SDS011;1738;49.500;17.736;2023-09-30T06:50:11;19.63;;;11.50;;
3447;SDS011;1738;49.500;17.736;2023-09-30T06:52:37;19.03;;;11.00;;
3447;SDS011;1738;49.500;17.736;2023-09-30T06:55:03;19.13;;;12.03;;
3447;SDS011;1738;49.500;17.736;2023-09-30T06:57:32;15.50;;;11.37;;
3447;SDS011;1738;49.500;17.736;2023-09-30T06:59:57;16.50;;;11.97;;
3447;SDS011;1738;49.500;17.736;2023-09-30T07:02:23;12.70;;;10.30;;
3447;SDS011;1738;49.500;17.736;2023-09-30T07:04:48;15.00;;;11.60;;
3447;SDS011;1738;49.500;17.736;2023-09-30T07:07:14;18.47;;;12.07;;
3447;SDS011;1738;49.500;17.736;2023-09-30T07:09:40;15.57;;;11.37;;
3447;SDS011;1738;49.500;17.736;2023-09-30T07:12:06;24.53;;;13.77;;
3447;SDS011;1738;49.500;17.736;2023-09-30T07:14:32;15.68;;;10.23;;
3447;SDS011;1738;49.500;17.736;2023-09-30T07:16:58;17.50;;;12.83;;
3447;SDS011;1738;49.500;17.736;2023-09-30T07:19:24;17.53;;;10.77;;
3447;SDS011;1738;49.500;17.736;2023-09-30T07:21:49;15.20;;;12.10;;
3447;SDS011;1738;49.500;17.736;2023-09-30T07:24:15;16.15;;;12.55;;
3447;SDS011;1738;49.500;17.736;2023-09-30T07:26:41;20.37;;;12.03;;
3447;SDS011;1738;49.500;17.736;2023-09-30T07:29:08;17.80;;;12.80;;
3447;SDS011;1738;49.500;17.736;2023-09-30T07:31:34;21.33;;;12.83;;
3447;SDS011;1738;49.500;17.736;2023-09-30T07:33:59;17.23;;;12.50;;
3447;SDS011;1738;49.500;17.736;2023-09-30T07:36:24;18.50;;;13.70;;
3447;SDS011;1738;49.500;17.736;2023-09-30T07:38:50;19.40;;;12.60;;
3447;SDS011;1738;49.500;17.736;2023-09-30T07:41:16;20.30;;;13.63;;
3447;SDS011;1738;49.500;17.736;2023-09-30T07:43:42;14.03;;;11.93;;
3447;SDS011;1738;49.500;17.736;2023-09-30T07:46:08;18.58;;;13.62;;
3447;SDS011;1738;49.500;17.736;2023-09-30T07:48:34;23.90;;;13.67;;
3447;SDS011;1738;49.500;17.736;2023-09-30T07:51:00;19.50;;;14.00;;
3447;SDS011;1738;49.500;17.736;2023-09-30T07:53:26;16.27;;;12.97;;
3447;SDS011;1738;49.500;17.736;2023-09-30T07:55:51;18.10;;;12.00;;
3447;SDS011;1738;49.500;17.736;2023-09-30T07:58:17;16.83;;;12.03;;
3447;SDS011;1738;49.500;17.736;2023-09-30T08:00:43;15.17;;;12.10;;
3447;SDS011;1738;49.500;17.736;2023-09-30T08:03:09;17.00;;;13.20;;
3447;SDS011;1738;49.500;17.736;2023-09-30T08:05:35;18.00;;;13.03;;
3447;SDS011;1738;49.500;17.736;2023-09-30T08:08:01;21.33;;;12.77;;
3447;SDS011;1738;49.500;17.736;2023-09-30T08:10:26;20.20;;;12.73;;
3447;SDS011;1738;49.500;17.736;2023-09-30T08:12:52;18.80;;;12.10;;
3447;SDS011;1738;49.500;17.736;2023-09-30T08:15:18;17.07;;;12.50;;
3447;SDS011;1738;49.500;17.736;2023-09-30T08:17:44;17.43;;;13.27;;
3447;SDS011;1738;49.500;17.736;2023-09-30T08:20:10;14.63;;;12.27;;
3447;SDS011;1738;49.500;17.736;2023-09-30T08:22:36;18.23;;;12.40;;
3447;SDS011;1738;49.500;17.736;2023-09-30T08:25:02;17.50;;;12.60;;
3447;SDS011;1738;49.500;17.736;2023-09-30T08:27:28;16.13;;;11.80;;
3447;SDS011;1738;49.500;17.736;2023-09-30T08:29:53;16.37;;;13.20;;
3447;SDS011;1738;49.500;17.736;2023-09-30T08:32:19;18.90;;;13.97;;
3447;SDS011;1738;49.500;17.736;2023-09-30T08:34:45;19.30;;;13.70;;
3447;SDS011;1738;49.500;17.736;2023-09-30T08:37:11;22.27;;;13.67;;
3447;SDS011;1738;49.500;17.736;2023-09-30T08:39:38;22.67;;;13.77;;
3447;SDS011;1738;49.500;17.736;2023-09-30T08:42:03;16.75;;;14.65;;
3447;SDS011;1738;49.500;17.736;2023-09-30T08:44:30;18.20;;;14.43;;
3447;SDS011;1738;49.500;17.736;2023-09-30T08:46:56;16.60;;;12.57;;
3447;SDS011;1738;49.500;17.736;2023-09-30T08:49:22;15.37;;;12.87;;
3447;SDS011;1738;49.500;17.736;2023-09-30T08:51:48;18.10;;;13.40;;
3447;SDS011;1738;49.500;17.736;2023-09-30T08:54:13;18.30;;;13.40;;
3447;SDS011;1738;49.500;17.736;2023-09-30T08:56:39;19.20;;;14.53;;
3447;SDS011;1738;49.500;17.736;2023-09-30T08:59:05;22.20;;;14.10;;
3447;SDS011;1738;49.500;17.736;2023-09-30T09:01:31;18.53;;;15.40;;
3447;SDS011;1738;49.500;17.736;2023-09-30T09:03:57;16.17;;;12.90;;
3447;SDS011;1738;49.500;17.736;2023-09-30T09:06:23;18.63;;;14.23;;
3447;SDS011;1738;49.500;17.736;2023-09-30T09:08:48;19.80;;;14.50;;
3447;SDS011;1738;49.500;17.736;2023-09-30T09:11:14;19.40;;;15.63;;
3447;SDS011;1738;49.500;17.736;2023-09-30T09:16:12;14.60;;;12.60;;
3447;SDS011;1738;49.500;17.736;2023-09-30T09:18:37;16.53;;;14.17;;
3447;SDS011;1738;49.500;17.736;2023-09-30T09:21:08;18.77;;;15.00;;
3447;SDS011;1738;49.500;17.736;2023-09-30T09:23:38;18.73;;;14.20;;
3447;SDS011;1738;49.500;17.736;2023-09-30T09:25:59;18.30;;;15.20;;
3447;SDS011;1738;49.500;17.736;2023-09-30T09:28:33;23.43;;;16.00;;
3447;SDS011;1738;49.500;17.736;2023-09-30T09:30:51;21.50;;;15.60;;
3447;SDS011;1738;49.500;17.736;2023-09-30T09:33:17;17.73;;;13.80;;
3447;SDS011;1738;49.500;17.736;2023-09-30T09:35:42;20.20;;;14.00;;
3447;SDS011;1738;49.500;17.736;2023-09-30T09:38:08;19.83;;;14.83;;
3447;SDS011;1738;49.500;17.736;2023-09-30T09:40:35;20.20;;;16.20;;
3447;SDS011;1738;49.500;17.736;2023-09-30T09:43:00;25.33;;;16.33;;
3447;SDS011;1738;49.500;17.736;2023-09-30T09:45:26;18.20;;;14.70;;
3447;SDS011;1738;49.500;17.736;2023-09-30T09:47:53;27.30;;;16.60;;
3447;SDS011;1738;49.500;17.736;2023-09-30T09:50:19;21.40;;;15.57;;
3447;SDS011;1738;49.500;17.736;2023-09-30T09:52:44;16.33;;;14.60;;
3447;SDS011;1738;49.500;17.736;2023-09-30T09:55:10;19.43;;;15.97;;
3447;SDS011;1738;49.500;17.736;2023-09-30T09:57:36;20.30;;;15.03;;
3447;SDS011;1738;49.500;17.736;2023-09-30T10:00:02;20.33;;;15.67;;
3447;SDS011;1738;49.500;17.736;2023-09-30T10:02:28;18.00;;;14.40;;
3447;SDS011;1738;49.500;17.736;2023-09-30T10:04:54;20.23;;;16.07;;
3447;SDS011;1738;49.500;17.736;2023-09-30T10:07:24;20.83;;;16.10;;
3447;SDS011;1738;49.500;17.736;2023-09-30T10:09:49;19.17;;;14.90;;
3447;SDS011;1738;49.500;17.736;2023-09-30T10:12:14;27.43;;;18.37;;
3447;SDS011;1738;49.500;17.736;2023-09-30T10:14:39;23.53;;;16.57;;
3447;SDS011;1738;49.500;17.736;2023-09-30T10:17:05;22.13;;;15.80;;
3447;SDS011;1738;49.500;17.736;2023-09-30T10:19:31;23.27;;;15.93;;
3447;SDS011;1738;49.500;17.736;2023-09-30T10:24:28;18.27;;;14.93;;
3447;SDS011;1738;49.500;17.736;2023-09-30T10:29:39;21.50;;;16.30;;
3447;SDS011;1738;49.500;17.736;2023-09-30T10:31:52;21.80;;;15.43;;
3447;SDS011;1738;49.500;17.736;2023-09-30T10:34:20;19.13;;;14.50;;
3447;SDS011;1738;49.500;17.736;2023-09-30T10:36:46;23.63;;;17.07;;
3447;SDS011;1738;49.500;17.736;2023-09-30T10:39:12;21.50;;;17.27;;
3447;SDS011;1738;49.500;17.736;2023-09-30T10:41:48;21.73;;;16.83;;
3447;SDS011;1738;49.500;17.736;2023-09-30T10:46:40;19.40;;;16.47;;
3447;SDS011;1738;49.500;17.736;2023-09-30T10:51:38;19.23;;;17.00;;
3447;SDS011;1738;49.500;17.736;2023-09-30T10:54:04;19.67;;;15.80;;
3447;SDS011;1738;49.500;17.736;2023-09-30T10:56:32;18.40;;;16.10;;
3447;SDS011;1738;49.500;17.736;2023-09-30T10:58:58;17.07;;;15.27;;
3447;SDS011;1738;49.500;17.736;2023-09-30T11:01:24;18.60;;;14.90;;
3447;SDS011;1738;49.500;17.736;2023-09-30T11:03:50;19.70;;;14.97;;
3447;SDS011;1738;49.500;17.736;2023-09-30T11:06:17;20.10;;;15.00;;
3447;SDS011;1738;49.500;17.736;2023-09-30T11:08:44;16.97;;;14.83;;
3447;SDS011;1738;49.500;17.736;2023-09-30T11:11:10;21.60;;;16.73;;
3447;SDS011;1738;49.500;17.736;2023-09-30T11:13:36;22.10;;;15.70;;
3447;SDS011;1738;49.500;17.736;2023-09-30T11:16:02;21.60;;;16.37;;
3447;SDS011;1738;49.500;17.736;2023-09-30T11:18:28;22.43;;;16.50;;
3447;SDS011;1738;49.500;17.736;2023-09-30T11:21:02;19.53;;;16.00;;
3447;SDS011;1738;49.500;17.736;2023-09-30T11:23:19;26.47;;;16.90;;
3447;SDS011;1738;49.500;17.736;2023-09-30T11:25:45;20.70;;;16.33;;
3447;SDS011;1738;49.500;17.736;2023-09-30T11:28:12;21.97;;;16.73;;
3447;SDS011;1738;49.500;17.736;2023-09-30T11:30:52;23.33;;;17.00;;
3447;SDS011;1738;49.500;17.736;2023-09-30T11:33:03;17.57;;;15.60;;
3447;SDS011;1738;49.500;17.736;2023-09-30T11:35:29;20.43;;;16.30;;
3447;SDS011;1738;49.500;17.736;2023-09-30T11:37:55;22.73;;;18.70;;
3447;SDS011;1738;49.500;17.736;2023-09-30T11:40:21;20.55;;;17.67;;
3447;SDS011;1738;49.500;17.736;2023-09-30T11:45:20;19.30;;;17.03;;
3447;SDS011;1738;49.500;17.736;2023-09-30T11:47:45;27.83;;;18.53;;
3447;SDS011;1738;49.500;17.736;2023-09-30T11:50:11;23.07;;;18.30;;
3447;SDS011;1738;49.500;17.736;2023-09-30T11:52:36;22.40;;;16.83;;
3447;SDS011;1738;49.500;17.736;2023-09-30T11:55:02;18.70;;;16.70;;
3447;SDS011;1738;49.500;17.736;2023-09-30T11:57:29;23.00;;;18.27;;
3447;SDS011;1738;49.500;17.736;2023-09-30T11:59:54;22.03;;;18.30;;
3447;SDS011;1738;49.500;17.736;2023-09-30T12:02:20;21.40;;;18.80;;
3447;SDS011;1738;49.500;17.736;2023-09-30T12:04:46;20.17;;;17.43;;
3447;SDS011;1738;49.500;17.736;2023-09-30T12:07:13;19.23;;;16.53;;
3447;SDS011;1738;49.500;17.736;2023-09-30T12:09:39;17.97;;;16.07;;
3447;SDS011;1738;49.500;17.736;2023-09-30T12:12:05;20.57;;;16.83;;
3447;SDS011;1738;49.500;17.736;2023-09-30T12:14:31;22.90;;;17.83;;
3447;SDS011;1738;49.500;17.736;2023-09-30T12:16:57;16.83;;;15.03;;
3447;SDS011;1738;49.500;17.736;2023-09-30T12:19:22;18.23;;;16.00;;
3447;SDS011;1738;49.500;17.736;2023-09-30T12:21:48;24.60;;;20.27;;
3447;SDS011;1738;49.500;17.736;2023-09-30T12:24:14;24.63;;;18.60;;
3447;SDS011;1738;49.500;17.736;2023-09-30T12:26:43;22.10;;;16.97;;
3447;SDS011;1738;49.500;17.736;2023-09-30T12:29:09;21.00;;;13.40;;
3447;SDS011;1738;49.500;17.736;2023-09-30T12:31:34;14.07;;;12.00;;
3447;SDS011;1738;49.500;17.736;2023-09-30T12:34:00;16.93;;;12.30;;
3447;SDS011;1738;49.500;17.736;2023-09-30T12:36:26;14.93;;;12.60;;
3447;SDS011;1738;49.500;17.736;2023-09-30T12:38:52;20.20;;;13.65;;
3447;SDS011;1738;49.500;17.736;2023-09-30T12:41:18;16.77;;;12.53;;
3447;SDS011;1738;49.500;17.736;2023-09-30T12:43:44;16.00;;;13.40;;
3447;SDS011;1738;49.500;17.736;2023-09-30T12:48:51;16.97;;;12.60;;
3447;SDS011;1738;49.500;17.736;2023-09-30T12:51:17;17.50;;;12.80;;
3447;SDS011;1738;49.500;17.736;2023-09-30T12:53:43;17.03;;;14.07;;
3447;SDS011;1738;49.500;17.736;2023-09-30T12:56:09;15.57;;;13.17;;
3447;SDS011;1738;49.500;17.736;2023-09-30T12:58:34;18.77;;;13.63;;
3447;SDS011;1738;49.500;17.736;2023-09-30T13:01:00;17.10;;;15.03;;
3447;SDS011;1738;49.500;17.736;2023-09-30T13:03:26;18.30;;;14.37;;
3447;SDS011;1738;49.500;17.736;2023-09-30T13:05:52;18.13;;;14.23;;
3447;SDS011;1738;49.500;17.736;2023-09-30T13:08:18;17.48;;;12.40;;
3447;SDS011;1738;49.500;17.736;2023-09-30T13:10:44;16.17;;;12.40;;
3447;SDS011;1738;49.500;17.736;2023-09-30T13:13:10;14.53;;;11.97;;
3447;SDS011;1738;49.500;17.736;2023-09-30T13:15:35;15.73;;;12.90;;
3447;SDS011;1738;49.500;17.736;2023-09-30T13:18:01;16.90;;;14.00;;
3447;SDS011;1738;49.500;17.736;2023-09-30T13:20:28;17.97;;;14.20;;
3447;SDS011;1738;49.500;17.736;2023-09-30T13:22:54;24.73;;;14.13;;
3447;SDS011;1738;49.500;17.736;2023-09-30T13:25:19;17.30;;;12.20;;
3447;SDS011;1738;49.500;17.736;2023-09-30T13:27:45;15.32;;;12.70;;
3447;SDS011;1738;49.500;17.736;2023-09-30T13:30:11;18.37;;;13.93;;
3447;SDS011;1738;49.500;17.736;2023-09-30T13:32:37;19.40;;;14.27;;
3447;SDS011;1738;49.500;17.736;2023-09-30T13:35:03;16.60;;;13.97;;
3447;SDS011;1738;49.500;17.736;2023-09-30T13:37:29;19.70;;;13.70;;
3447;SDS011;1738;49.500;17.736;2023-09-30T13:39:55;15.00;;;12.20;;
3447;SDS011;1738;49.500;17.736;2023-09-30T13:42:21;11.50;;;9.50;;
3447;SDS011;1738;49.500;17.736;2023-09-30T13:44:47;14.80;;;10.43;;
3447;SDS011;1738;49.500;17.736;2023-09-30T13:47:13;22.07;;;10.50;;
3447;SDS011;1738;49.500;17.736;2023-09-30T13:49:39;12.07;;;8.10;;
3447;SDS011;1738;49.500;17.736;2023-09-30T13:52:04;9.60;;;7.23;;
3447;SDS011;1738;49.500;17.736;2023-09-30T13:54:30;9.50;;;6.93;;
3447;SDS011;1738;49.500;17.736;2023-09-30T13:56:56;11.93;;;7.47;;
3447;SDS011;1738;49.500;17.736;2023-09-30T13:59:22;7.47;;;6.30;;
3447;SDS011;1738;49.500;17.736;2023-09-30T14:01:48;8.90;;;6.90;;
3447;SDS011;1738;49.500;17.736;2023-09-30T14:04:14;6.70;;;5.07;;
3447;SDS011;1738;49.500;17.736;2023-09-30T14:06:39;10.40;;;5.87;;
3447;SDS011;1738;49.500;17.736;2023-09-30T14:09:05;6.57;;;5.10;;
3447;SDS011;1738;49.500;17.736;2023-09-30T14:11:31;8.50;;;5.93;;
3447;SDS011;1738;49.500;17.736;2023-09-30T14:13:57;8.23;;;6.07;;
3447;SDS011;1738;49.500;17.736;2023-09-30T14:16:23;8.50;;;6.53;;
3447;SDS011;1738;49.500;17.736;2023-09-30T14:18:49;9.20;;;5.93;;
3447;SDS011;1738;49.500;17.736;2023-09-30T14:21:14;10.53;;;5.67;;
3447;SDS011;1738;49.500;17.736;2023-09-30T14:23:40;7.17;;;5.17;;
3447;SDS011;1738;49.500;17.736;2023-09-30T14:26:06;7.70;;;5.50;;
3447;SDS011;1738;49.500;17.736;2023-09-30T14:28:32;8.98;;;4.68;;
3447;SDS011;1738;49.500;17.736;2023-09-30T14:30:58;12.20;;;5.90;;
3447;SDS011;1738;49.500;17.736;2023-09-30T14:33:24;9.80;;;5.83;;
3447;SDS011;1738;49.500;17.736;2023-09-30T14:35:50;9.87;;;5.70;;
3447;SDS011;1738;49.500;17.736;2023-09-30T14:38:15;11.83;;;5.57;;
3447;SDS011;1738;49.500;17.736;2023-09-30T14:40:41;7.30;;;5.63;;
3447;SDS011;1738;49.500;17.736;2023-09-30T14:43:07;12.47;;;6.23;;
3447;SDS011;1738;49.500;17.736;2023-09-30T14:45:37;12.90;;;5.47;;
3447;SDS011;1738;49.500;17.736;2023-09-30T14:48:03;9.10;;;6.17;;